Time;durP1;ratioP1;P1;durP2;ratioP2;P2;SDS_P1;SDS_P2;PMS_P1;PMS_P2;Temp;Humidity;BMP_temperature;BMP_pressure;BME280_temperature;BME280_humidity;BME280_pressure;Samples;Min_cycle;Max_cycle;Signal;HPM_P1;HPM_P2
2022/05/16 00:01:53;;;;;;;17.45;8.65;;;13.20;99.90;;;;;;5060898;28;20045;-66
2022/05/16 00:04:19;;;;;;;14.73;7.60;;;13.20;99.90;;;;;;5073759;28;20371;-65
2022/05/16 00:06:44;;;;;;;13.85;7.95;;;13.10;99.90;;;;;;5073255;28;20079;-66
2022/05/16 00:09:10;;;;;;;15.32;8.25;;;13.10;99.90;;;;;;5074767;28;20041;-65
2022/05/16 00:11:36;;;;;;;20.70;8.98;;;13.10;99.90;;;;;;5074858;28;20122;-66
2022/05/16 00:14:02;;;;;;;16.40;7.88;;;13.10;99.90;;;;;;5073885;28;20113;-66
2022/05/16 00:16:28;;;;;;;15.15;7.57;;;13.10;99.90;;;;;;5056579;28;20052;-65
2022/05/16 00:18:53;;;;;;;14.00;8.57;;;13.10;99.90;;;;;;5074492;28;20049;-66
2022/05/16 00:21:19;;;;;;;13.65;8.48;;;13.10;99.90;;;;;;5071248;28;20049;-66
2022/05/16 00:23:45;;;;;;;12.05;7.70;;;13.10;99.90;;;;;;5074806;28;20058;-66
2022/05/16 00:26:11;;;;;;;13.90;8.35;;;13.10;99.90;;;;;;5074853;28;20036;-66
2022/05/16 00:28:37;;;;;;;15.50;7.57;;;13.00;99.90;;;;;;5076044;28;20041;-66
2022/05/16 00:31:05;;;;;;;16.30;8.27;;;13.00;99.90;;;;;;5078164;28;20048;-65
2022/05/16 00:33:32;;;;;;;14.93;7.80;;;13.00;99.90;;;;;;5074817;28;20052;-66
2022/05/16 00:35:57;;;;;;;18.05;7.75;;;13.00;99.90;;;;;;5078299;28;20040;-66
2022/05/16 00:38:23;;;;;;;15.63;7.97;;;13.00;99.90;;;;;;5077988;28;20127;-65
2022/05/16 00:40:49;;;;;;;12.85;7.82;;;13.10;99.90;;;;;;5077391;28;20040;-66
2022/05/16 00:43:39;;;;;;;17.65;7.72;;;13.00;99.90;;;;;;5078522;28;20584;-66
2022/05/16 00:46:05;;;;;;;13.70;7.70;;;13.00;99.90;;;;;;5077856;28;20060;-66
2022/05/16 00:48:31;;;;;;;16.27;7.47;;;13.00;99.90;;;;;;5078069;28;20056;-66
2022/05/16 00:50:57;;;;;;;18.05;7.80;;;13.00;99.90;;;;;;5077732;28;20454;-66
2022/05/16 00:53:23;;;;;;;13.70;7.80;;;13.00;99.90;;;;;;5077897;28;20059;-65
2022/05/16 00:55:49;;;;;;;18.08;7.95;;;13.00;99.90;;;;;;5077068;28;20048;-66
2022/05/16 00:58:16;;;;;;;14.52;7.60;;;13.00;99.90;;;;;;5078215;28;20048;-66
2022/05/16 01:00:44;;;;;;;14.30;7.78;;;13.00;99.90;;;;;;5077482;28;20045;-66
2022/05/16 01:05:57;;;;;;;18.83;8.52;;;13.00;99.90;;;;;;5077805;28;20127;-65
2022/05/16 01:08:25;;;;;;;16.48;7.65;;;13.00;99.90;;;;;;5077911;28;20463;-66
2022/05/16 01:10:54;;;;;;;16.33;8.10;;;13.00;99.90;;;;;;5076739;28;20450;-66
2022/05/16 01:13:26;;;;;;;14.38;7.32;;;12.90;99.90;;;;;;5077042;28;20048;-65
2022/05/16 01:15:53;;;;;;;13.90;7.10;;;13.00;99.90;;;;;;5077364;28;20466;-66
2022/05/16 01:18:20;;;;;;;15.10;7.82;;;13.00;99.90;;;;;;5077607;28;20044;-65
2022/05/16 01:21:05;;;;;;;11.60;6.15;;;12.90;99.90;;;;;;5077366;28;20040;-65
2022/05/16 01:23:55;;;;;;;10.60;7.30;;;13.00;99.90;;;;;;5077296;28;20040;-66
2022/05/16 01:26:26;;;;;;;11.32;6.70;;;13.00;99.90;;;;;;5076619;28;20105;-66
2022/05/16 01:28:56;;;;;;;13.77;7.05;;;12.90;99.90;;;;;;5077259;28;20045;-66
2022/05/16 01:31:22;;;;;;;12.82;7.47;;;12.90;99.90;;;;;;5077351;28;20412;-66
2022/05/16 01:33:47;;;;;;;15.32;7.72;;;12.90;99.90;;;;;;5077650;28;20047;-65
2022/05/16 01:36:13;;;;;;;12.15;7.45;;;12.90;99.90;;;;;;5076396;28;20032;-66
2022/05/16 01:38:40;;;;;;;10.80;7.20;;;12.90;99.90;;;;;;5076840;28;20041;-66
2022/05/16 01:41:09;;;;;;;13.75;7.35;;;13.00;99.90;;;;;;5076909;28;20040;-66
2022/05/16 01:43:41;;;;;;;15.93;7.20;;;12.90;99.90;;;;;;5077168;28;20059;-66
2022/05/16 01:46:08;;;;;;;14.13;7.43;;;12.90;99.90;;;;;;5077026;28;20094;-65
2022/05/16 01:48:34;;;;;;;11.60;7.10;;;12.90;99.90;;;;;;5077125;28;20109;-66
2022/05/16 01:51:03;;;;;;;13.20;7.07;;;12.90;99.90;;;;;;5075992;28;20044;-66
2022/05/16 01:53:29;;;;;;;12.02;7.25;;;12.90;99.90;;;;;;5076854;28;20090;-65
2022/05/16 01:55:55;;;;;;;16.50;7.22;;;12.80;99.90;;;;;;5075965;28;20037;-65
2022/05/16 01:58:21;;;;;;;11.93;6.47;;;12.80;99.90;;;;;;5076776;28;20420;-65
2022/05/16 02:00:47;;;;;;;13.70;6.22;;;12.90;99.90;;;;;;5076879;28;20041;-66
2022/05/16 02:03:13;;;;;;;10.63;6.95;;;12.90;99.90;;;;;;5076568;28;20366;-66
2022/05/16 02:05:42;;;;;;;10.32;6.03;;;12.90;99.90;;;;;;5076150;28;20036;-65
2022/05/16 02:08:08;;;;;;;16.10;7.45;;;12.90;99.90;;;;;;5059327;28;20470;-66
2022/05/16 02:10:34;;;;;;;11.63;6.18;;;12.90;99.90;;;;;;5076722;28;20049;-65
2022/05/16 02:13:01;;;;;;;9.50;5.65;;;12.90;99.90;;;;;;5076529;28;20126;-66
2022/05/16 02:15:30;;;;;;;12.43;5.68;;;12.90;99.90;;;;;;5076646;28;20522;-66
2022/05/16 02:17:56;;;;;;;12.90;6.00;;;12.90;99.90;;;;;;5076260;28;20105;-66
2022/05/16 02:20:22;;;;;;;8.80;5.75;;;12.90;99.90;;;;;;5075318;28;20477;-66
2022/05/16 02:25:37;;;;;;;11.40;5.63;;;13.00;99.90;;;;;;5076440;28;20088;-65
2022/05/16 02:28:05;;;;;;;9.55;5.80;;;13.00;99.90;;;;;;5075564;28;20110;-66
2022/05/16 02:30:30;;;;;;;13.65;5.97;;;13.00;99.90;;;;;;5076254;28;20109;-66
2022/05/16 02:32:57;;;;;;;11.48;5.78;;;13.00;99.90;;;;;;5076074;28;20044;-66
2022/05/16 02:35:23;;;;;;;10.55;5.93;;;13.00;99.90;;;;;;5076133;28;20060;-66
2022/05/16 02:37:49;;;;;;;8.50;5.32;;;13.10;99.90;;;;;;5076104;28;20036;-66
2022/05/16 02:40:15;;;;;;;11.35;5.40;;;13.10;99.90;;;;;;5076332;28;20036;-66
2022/05/16 02:42:41;;;;;;;13.60;5.70;;;13.10;99.90;;;;;;5074710;28;20059;-66
2022/05/16 02:45:07;;;;;;;11.65;5.85;;;13.10;99.90;;;;;;5055104;28;20057;-65
2022/05/16 02:47:33;;;;;;;15.30;5.38;;;13.10;99.90;;;;;;5055922;28;20202;-65
2022/05/16 02:49:59;;;;;;;11.00;6.68;;;13.10;99.90;;;;;;5055082;28;20072;-66
2022/05/16 02:52:24;;;;;;;10.32;5.65;;;13.10;99.90;;;;;;5055727;28;20045;-66
2022/05/16 02:54:51;;;;;;;11.70;6.40;;;13.10;99.90;;;;;;5038235;28;20053;-65
2022/05/16 02:57:18;;;;;;;10.95;5.40;;;13.10;99.90;;;;;;5057198;28;20513;-67
2022/05/16 02:59:43;;;;;;;10.93;6.35;;;13.10;99.90;;;;;;5075498;28;20135;-65
2022/05/16 03:02:11;;;;;;;12.93;6.28;;;13.10;99.90;;;;;;5075751;28;20123;-66
2022/05/16 03:04:37;;;;;;;9.23;6.07;;;13.10;99.90;;;;;;5075508;28;20078;-66
2022/05/16 03:07:04;;;;;;;12.85;5.60;;;13.10;99.90;;;;;;5075351;28;20056;-66
2022/05/16 03:09:31;;;;;;;10.18;6.18;;;13.10;99.90;;;;;;5075703;28;20436;-66
2022/05/16 03:11:56;;;;;;;11.95;6.25;;;13.10;99.90;;;;;;5074460;28;20040;-66
2022/05/16 03:14:23;;;;;;;11.95;6.13;;;13.10;99.90;;;;;;5075367;28;20060;-66
2022/05/16 03:16:49;;;;;;;7.93;5.40;;;13.00;99.90;;;;;;5075065;28;20395;-66
2022/05/16 03:19:15;;;;;;;9.20;5.82;;;13.00;99.90;;;;;;5075192;28;20076;-65
2022/05/16 03:21:42;;;;;;;9.15;5.55;;;13.00;99.90;;;;;;5057783;28;20488;-65
2022/05/16 03:24:08;;;;;;;9.68;5.60;;;13.00;99.90;;;;;;5075408;28;20131;-66
2022/05/16 03:26:35;;;;;;;10.85;5.47;;;13.00;99.90;;;;;;5056970;28;20076;-66
2022/05/16 03:29:00;;;;;;;10.68;5.70;;;13.00;99.90;;;;;;5074975;28;20053;-66
2022/05/16 03:31:26;;;;;;;11.93;5.50;;;13.00;99.90;;;;;;5074175;28;20120;-66
2022/05/16 03:33:51;;;;;;;7.07;5.40;;;13.00;99.90;;;;;;5075042;28;20051;-66
2022/05/16 03:36:17;;;;;;;8.23;5.22;;;13.00;99.90;;;;;;5074977;28;20067;-65
2022/05/16 03:41:28;;;;;;;10.70;5.00;;;13.00;99.90;;;;;;5073886;28;20419;-65
2022/05/16 03:43:54;;;;;;;10.02;5.63;;;13.00;99.90;;;;;;5074624;28;20044;-66
2022/05/16 03:46:19;;;;;;;9.23;5.75;;;13.00;99.90;;;;;;5074921;28;20101;-65
2022/05/16 03:48:45;;;;;;;10.55;5.40;;;13.00;99.90;;;;;;5074516;28;20048;-65
2022/05/16 03:51:13;;;;;;;11.10;5.05;;;13.00;99.90;;;;;;5074621;28;20056;-65
2022/05/16 03:53:48;;;;;;;9.88;5.10;;;13.00;99.90;;;;;;5074551;28;20052;-66
2022/05/16 03:56:18;;;;;;;11.15;5.75;;;12.90;99.90;;;;;;5073798;28;20044;-65
2022/05/16 03:58:44;;;;;;;11.43;4.72;;;13.00;99.90;;;;;;5074444;28;20446;-65
2022/05/16 04:01:11;;;;;;;6.97;4.80;;;13.00;99.90;;;;;;5074507;28;20119;-66
2022/05/16 04:03:37;;;;;;;8.27;4.60;;;13.00;99.90;;;;;;5075027;28;20076;-65
2022/05/16 04:06:03;;;;;;;9.93;4.97;;;13.00;99.90;;;;;;5074370;28;20454;-66
2022/05/16 04:08:29;;;;;;;11.65;5.72;;;13.00;99.90;;;;;;5074657;28;20128;-65
2022/05/16 04:10:56;;;;;;;7.82;4.70;;;13.10;99.90;;;;;;5073791;28;20076;-66
2022/05/16 04:13:22;;;;;;;6.78;4.60;;;13.00;99.90;;;;;;5073928;28;20514;-65
2022/05/16 04:15:47;;;;;;;8.80;4.90;;;13.00;99.90;;;;;;5074761;28;20095;-66
2022/05/16 04:18:13;;;;;;;8.43;4.97;;;13.00;99.90;;;;;;5074573;28;20359;-65
2022/05/16 04:20:38;;;;;;;12.35;4.80;;;13.00;99.90;;;;;;5074625;28;20469;-65
2022/05/16 04:23:06;;;;;;;9.75;5.03;;;13.00;99.90;;;;;;5073698;28;20112;-65
2022/05/16 04:25:32;;;;;;;13.00;4.60;;;13.00;99.90;;;;;;5074767;28;20124;-65
2022/05/16 04:27:57;;;;;;;10.60;4.72;;;13.00;99.90;;;;;;5074532;28;20415;-65
2022/05/16 04:30:23;;;;;;;8.13;4.55;;;13.00;99.90;;;;;;5053526;28;20053;-65
2022/05/16 04:32:49;;;;;;;7.20;4.65;;;13.00;99.90;;;;;;5054440;28;20067;-65
2022/05/16 04:35:14;;;;;;;18.45;5.93;;;13.10;99.90;;;;;;5054339;28;20116;-66
2022/05/16 04:37:40;;;;;;;12.23;5.22;;;13.10;99.90;;;;;;5054456;28;20450;-65
2022/05/16 04:40:08;;;;;;;12.27;5.03;;;13.10;99.90;;;;;;5054056;28;20037;-65
2022/05/16 04:42:44;;;;;;;6.95;4.57;;;13.10;99.90;;;;;;5054273;28;20359;-65
2022/05/16 04:45:30;;;;;;;9.18;4.72;;;13.10;99.90;;;;;;5069181;28;20080;-66
2022/05/16 04:47:59;;;;;;;9.30;4.88;;;13.20;99.90;;;;;;5073658;28;20056;-65
2022/05/16 04:50:33;;;;;;;8.18;4.95;;;13.30;99.90;;;;;;5074326;28;20052;-66
2022/05/16 04:53:00;;;;;;;10.18;4.40;;;13.30;99.90;;;;;;5074183;28;20059;-66
2022/05/16 04:55:28;;;;;;;9.00;4.43;;;13.30;99.90;;;;;;5074156;28;20127;-66
2022/05/16 04:57:54;;;;;;;6.80;4.00;;;13.40;99.90;;;;;;5074118;28;20044;-65
2022/05/16 05:00:21;;;;;;;8.30;4.45;;;13.40;99.90;;;;;;5072740;28;20074;-66
2022/05/16 05:02:47;;;;;;;8.57;4.53;;;13.40;99.90;;;;;;5072538;28;20462;-66
2022/05/16 05:05:14;;;;;;;6.45;4.10;;;13.50;99.90;;;;;;5073044;28;20128;-66
2022/05/16 05:07:39;;;;;;;8.10;4.30;;;13.50;99.90;;;;;;5074319;28;20040;-66
2022/05/16 05:15:36;;;;;;;10.57;4.50;;;13.60;99.90;;;;;;5077298;28;20045;-65
2022/05/16 05:18:03;;;;;;;8.32;4.18;;;13.70;99.90;;;;;;5077296;28;20044;-69
2022/05/16 05:20:32;;;;;;;8.80;4.60;;;13.70;99.90;;;;;;5077529;28;20094;-69
2022/05/16 05:22:59;;;;;;;10.35;4.40;;;13.70;99.90;;;;;;5077688;28;20454;-69
2022/05/16 05:25:25;;;;;;;9.18;4.70;;;13.70;99.90;;;;;;5077289;28;20055;-71
2022/05/16 05:27:51;;;;;;;9.45;4.13;;;13.70;99.90;;;;;;5076187;28;20119;-70
2022/05/16 05:30:20;;;;;;;7.15;4.63;;;13.70;99.90;;;;;;5077433;28;20076;-71
2022/05/16 05:32:47;;;;;;;8.77;4.68;;;13.70;99.90;;;;;;5077128;28;20045;-68
2022/05/16 05:35:14;;;;;;;8.98;4.50;;;13.70;99.90;;;;;;5077360;28;20382;-70
2022/05/16 05:37:39;;;;;;;8.27;3.72;;;13.70;99.90;;;;;;5077373;28;20044;-66
2022/05/16 05:40:07;;;;;;;8.60;4.25;;;13.70;99.90;;;;;;5076402;28;20055;-67
2022/05/16 05:42:33;;;;;;;8.13;5.03;;;13.70;99.90;;;;;;5076730;28;20048;-66
2022/05/16 05:45:00;;;;;;;8.82;4.47;;;13.70;99.90;;;;;;5076968;28;20061;-65
2022/05/16 05:47:26;;;;;;;7.20;4.45;;;13.70;99.90;;;;;;5077130;28;20197;-66
2022/05/16 05:49:52;;;;;;;13.55;4.75;;;13.70;99.90;;;;;;5077059;28;20434;-67
2022/05/16 05:52:18;;;;;;;9.25;4.65;;;13.80;99.90;;;;;;5059255;28;20044;-67
2022/05/16 05:54:45;;;;;;;11.43;4.43;;;13.90;99.90;;;;;;5075882;28;20124;-67
2022/05/16 05:57:12;;;;;;;8.15;4.50;;;13.90;99.90;;;;;;5075839;28;20490;-65
2022/05/16 05:59:38;;;;;;;8.40;4.20;;;14.00;99.90;;;;;;5076802;28;20044;-66
2022/05/16 06:02:06;;;;;;;10.18;4.75;;;14.10;99.90;;;;;;5076796;28;20071;-67
2022/05/16 06:04:32;;;;;;;7.38;4.22;;;14.20;99.90;;;;;;5076639;28;20127;-67
2022/05/16 06:06:58;;;;;;;7.60;4.20;;;14.20;99.90;;;;;;5076716;28;20119;-66
2022/05/16 06:09:24;;;;;;;11.00;4.30;;;14.30;99.90;;;;;;5057921;28;20055;-66
2022/05/16 06:11:49;;;;;;;10.50;4.00;;;14.40;99.90;;;;;;5076602;28;20121;-66
2022/05/16 06:14:16;;;;;;;14.02;4.93;;;14.50;99.90;;;;;;5076454;28;20112;-67
2022/05/16 06:16:42;;;;;;;8.75;4.15;;;14.60;99.90;;;;;;5075731;28;20085;-67
2022/05/16 06:19:08;;;;;;;9.25;4.75;;;14.60;99.90;;;;;;5075372;28;20123;-66
2022/05/16 06:21:35;;;;;;;10.00;4.82;;;14.70;99.90;;;;;;5076139;28;20399;-66
2022/05/16 06:24:01;;;;;;;10.20;4.85;;;14.80;99.90;;;;;;5076070;28;20053;-66
2022/05/16 06:26:28;;;;;;;13.50;5.20;;;14.80;99.90;;;;;;5075005;28;20123;-66
2022/05/16 06:28:57;;;;;;;11.02;5.28;;;14.90;99.90;;;;;;5075784;28;20067;-66
2022/05/16 06:31:23;;;;;;;11.60;5.07;;;15.00;99.90;;;;;;5075938;28;20128;-66
2022/05/16 06:33:49;;;;;;;10.02;4.50;;;15.00;99.90;;;;;;5076056;28;20041;-66
2022/05/16 06:36:16;;;;;;;8.23;4.32;;;15.10;99.90;;;;;;5075183;28;20102;-66
2022/05/16 06:38:42;;;;;;;10.77;4.53;;;15.20;99.90;;;;;;5072274;28;20458;-66
2022/05/16 06:41:08;;;;;;;11.25;4.35;;;15.40;99.90;;;;;;5075811;28;20063;-66
2022/05/16 06:43:34;;;;;;;13.45;5.00;;;15.50;99.90;;;;;;5075742;28;20040;-66
2022/05/16 06:46:02;;;;;;;10.77;4.43;;;15.60;99.90;;;;;;5075823;28;20048;-66
2022/05/16 06:48:28;;;;;;;8.52;4.15;;;15.70;99.90;;;;;;5073708;28;20110;-66
2022/05/16 06:50:54;;;;;;;11.82;4.85;;;15.80;99.90;;;;;;5075888;28;20045;-67
2022/05/16 06:53:28;;;;;;;8.02;4.57;;;16.00;99.90;;;;;;5075068;28;20463;-70
2022/05/16 06:55:54;;;;;;;7.65;3.97;;;16.10;99.90;;;;;;5075694;28;20055;-70
2022/05/16 06:58:20;;;;;;;6.68;4.25;;;16.40;99.90;;;;;;5075660;28;20047;-70
2022/05/16 07:00:47;;;;;;;8.65;4.35;;;16.40;99.90;;;;;;5072201;28;20343;-71
2022/05/16 07:03:12;;;;;;;11.32;4.80;;;16.60;99.90;;;;;;5074611;28;20044;-70
2022/05/16 07:05:38;;;;;;;7.65;4.32;;;16.70;99.90;;;;;;5075230;28;20051;-71
2022/05/16 07:08:04;;;;;;;10.15;4.18;;;16.80;99.90;;;;;;5075326;28;20044;-70
2022/05/16 07:10:31;;;;;;;9.52;4.35;;;16.90;99.90;;;;;;5075245;28;20071;-71
2022/05/16 07:12:57;;;;;;;6.45;3.58;;;17.00;99.90;;;;;;5075327;28;20052;-70
2022/05/16 07:15:22;;;;;;;11.77;4.20;;;17.10;99.90;;;;;;5075633;28;20048;-71
2022/05/16 07:17:48;;;;;;;8.80;4.13;;;17.20;99.90;;;;;;5074552;28;20047;-71
2022/05/16 07:20:14;;;;;;;12.15;4.53;;;17.30;99.90;;;;;;5075214;28;20059;-71
2022/05/16 07:22:48;;;;;;;10.30;4.78;;;17.30;99.90;;;;;;5071856;28;20119;-71
2022/05/16 07:25:16;;;;;;;11.10;4.93;;;17.50;99.90;;;;;;5075234;28;20177;-71
2022/05/16 07:27:59;;;;;;;15.13;5.15;;;17.60;99.90;;;;;;5075101;28;20055;-70
2022/05/16 07:30:27;;;;;;;9.80;4.97;;;17.70;99.90;;;;;;5074038;28;20052;-71
2022/05/16 07:32:53;;;;;;;10.10;4.18;;;17.70;99.90;;;;;;5074810;28;20049;-71
2022/05/16 07:35:24;;;;;;;9.85;4.90;;;17.80;99.90;;;;;;5041247;28;20052;-69
2022/05/16 07:37:53;;;;;;;9.20;4.82;;;17.90;99.90;;;;;;5057326;28;20048;-69
2022/05/16 07:40:20;;;;;;;7.80;4.05;;;18.00;99.90;;;;;;5057552;28;20465;-71
2022/05/16 07:42:46;;;;;;;10.32;4.53;;;18.00;99.90;;;;;;5075024;28;20044;-71
2022/05/16 07:45:11;;;;;;;9.65;5.07;;;18.10;99.90;;;;;;5073945;28;20486;-71
2022/05/16 07:47:37;;;;;;;8.32;4.30;;;18.30;99.90;;;;;;5074794;28;20060;-71
2022/05/16 07:50:04;;;;;;;12.70;5.28;;;18.40;99.90;;;;;;5071590;28;20162;-71
2022/05/16 07:52:30;;;;;;;11.13;4.65;;;18.50;99.90;;;;;;5075001;28;20048;-71
2022/05/16 07:54:56;;;;;;;10.45;4.93;;;18.70;99.90;;;;;;5075003;28;20193;-71
2022/05/16 07:57:22;;;;;;;10.68;4.55;;;18.80;99.90;;;;;;5074644;28;20439;-67
2022/05/16 07:59:48;;;;;;;12.63;5.00;;;18.90;99.90;;;;;;5073950;28;20048;-67
2022/05/16 08:02:14;;;;;;;10.65;4.47;;;19.00;99.90;;;;;;5073896;28;20049;-67
2022/05/16 08:04:40;;;;;;;8.10;5.13;;;19.10;99.90;;;;;;5074683;28;20087;-66
2022/05/16 08:07:06;;;;;;;7.90;4.55;;;19.20;99.90;;;;;;5074298;28;20045;-66
2022/05/16 08:12:29;;;;;;;12.88;4.47;;;19.20;99.90;;;;;;5074605;28;20052;-66
2022/05/16 08:14:54;;;;;;;10.45;4.95;;;19.30;99.90;;;;;;5073917;28;20056;-67
2022/05/16 08:17:20;;;;;;;14.82;5.45;;;19.40;99.90;;;;;;5074679;28;20048;-66
2022/05/16 08:19:47;;;;;;;10.48;4.93;;;19.40;99.90;;;;;;5070245;28;20037;-67
2022/05/16 08:22:13;;;;;;;8.93;4.53;;;19.60;99.90;;;;;;5074348;28;20044;-68
2022/05/16 08:24:39;;;;;;;10.52;5.47;;;19.60;99.90;;;;;;5074494;28;20041;-67
2022/05/16 08:27:04;;;;;;;11.60;4.93;;;19.70;99.90;;;;;;5074031;28;20347;-67
2022/05/16 08:29:30;;;;;;;9.15;5.03;;;19.80;99.90;;;;;;5071237;28;20075;-67
2022/05/16 08:31:56;;;;;;;11.15;4.32;;;19.90;99.90;;;;;;5072857;28;20056;-67
2022/05/16 08:34:22;;;;;;;13.35;5.22;;;20.10;99.90;;;;;;5074535;28;20044;-67
2022/05/16 08:42:23;;;;;;;;;;;20.50;99.90;;;;;;5074373;28;20474;-67
2022/05/16 08:45:01;;;;;;;12.30;5.10;;;20.50;99.90;;;;;;5074303;28;20338;-65
2022/05/16 08:47:35;;;;;;;10.07;5.13;;;20.60;99.90;;;;;;5054169;28;20054;-65
2022/05/16 08:50:18;;;;;;;11.18;5.40;;;20.70;99.90;;;;;;5057110;28;20351;-65
2022/05/16 08:53:12;;;;;;;11.68;4.65;;;20.80;99.90;;;;;;5057860;28;20132;-66
2022/05/16 08:55:48;;;;;;;10.77;4.82;;;21.00;99.90;;;;;;5039339;28;20118;-66
2022/05/16 08:58:30;;;;;;;8.30;4.50;;;21.10;99.90;;;;;;5057647;28;20049;-67
2022/05/16 09:01:05;;;;;;;10.50;4.95;;;21.30;99.90;;;;;;5068075;28;20094;-66
2022/05/16 09:03:52;;;;;;;11.18;4.43;;;21.30;99.90;;;;;;5077902;28;20083;-67
2022/05/16 09:06:24;;;;;;;9.52;4.75;;;21.50;99.90;;;;;;5077752;28;20051;-67
2022/05/16 09:09:20;;;;;;;12.73;5.28;;;21.60;99.90;;;;;;5077466;28;20040;-67
2022/05/16 09:12:04;;;;;;;11.63;5.22;;;21.70;99.90;;;;;;5077715;28;20051;-66
2022/05/16 09:14:45;;;;;;;9.98;4.55;;;21.70;99.90;;;;;;5059831;28;20048;-67
2022/05/16 09:17:32;;;;;;;9.27;4.63;;;21.90;99.90;;;;;;5077621;28;20045;-66
2022/05/16 09:20:06;;;;;;;10.52;4.85;;;22.00;99.90;;;;;;5077642;28;20044;-67
2022/05/16 09:23:11;;;;;;;11.48;4.60;;;22.10;99.90;;;;;;5077327;28;20044;-67
2022/05/16 09:25:47;;;;;;;15.02;5.45;;;22.20;99.90;;;;;;5077207;28;20045;-67
2022/05/16 09:31:00;;;;;;;;;;;22.70;99.90;;;;;;5057687;28;20542;-67
2022/05/16 09:33:28;;;;;;;11.35;4.80;;;22.70;99.90;;;;;;5039855;28;19929;-67
2022/05/16 09:36:10;;;;;;;10.38;4.78;;;22.80;99.90;;;;;;5057295;28;20048;-67
2022/05/16 09:38:36;;;;;;;11.57;4.57;;;22.80;99.90;;;;;;5057634;28;20053;-66
2022/05/16 09:41:36;;;;;;;9.45;4.63;;;22.80;99.90;;;;;;5056839;28;20163;-69
2022/05/16 09:44:20;;;;;;;8.40;4.35;;;22.90;99.90;;;;;;5042979;28;20052;-70
2022/05/16 09:46:46;;;;;;;;;;;23.20;99.90;;;;;;5076824;28;20405;-69
2022/05/16 09:49:23;;;;;;;9.43;4.40;;;23.20;99.90;;;;;;5077027;28;19931;-70
2022/05/16 09:51:57;;;;;;;9.77;5.30;;;23.20;99.90;;;;;;5076949;28;20059;-68
2022/05/16 09:54:37;;;;;;;15.18;5.13;;;23.20;99.90;;;;;;5076929;28;20040;-70
2022/05/16 09:57:02;;;;;;;10.75;5.05;;;23.10;99.90;;;;;;5075864;28;20114;-70
2022/05/16 09:59:39;;;;;;;12.52;4.55;;;23.00;99.90;;;;;;5076568;28;20401;-69
2022/05/16 10:02:16;;;;;;;12.10;4.82;;;23.00;99.90;;;;;;5076381;28;20426;-69
2022/05/16 10:04:47;;;;;;;16.30;4.38;;;23.00;99.90;;;;;;5076303;28;20044;-70
2022/05/16 10:07:13;;;;;;;10.38;4.82;;;22.90;99.90;;;;;;5075325;28;20036;-70
2022/05/16 10:09:48;;;;;;;11.15;4.75;;;22.80;99.90;;;;;;5058633;28;20135;-70
2022/05/16 10:12:17;;;;;;;15.98;5.50;;;22.70;99.90;;;;;;5057478;28;20048;-70
2022/05/16 10:14:44;;;;;;;10.77;4.65;;;22.60;99.90;;;;;;5076652;28;20075;-69
2022/05/16 10:17:41;;;;;;;11.90;5.47;;;22.50;99.90;;;;;;5076500;28;20051;-69
2022/05/16 10:20:23;;;;;;;9.43;5.28;;;22.40;99.90;;;;;;5062892;28;20446;-70
2022/05/16 10:22:56;;;;;;;12.50;5.13;;;22.40;99.90;;;;;;5041586;28;20064;-68
2022/05/16 10:25:29;;;;;;;12.25;5.22;;;22.30;99.90;;;;;;5076363;28;20455;-69
2022/05/16 10:27:57;;;;;;;12.02;5.00;;;22.30;99.90;;;;;;5076071;28;20056;-69
2022/05/16 10:30:26;;;;;;;10.10;5.03;;;22.40;99.90;;;;;;5076160;28;20053;-69
2022/05/16 10:35:50;;;;;;;12.27;4.88;;;22.40;99.90;;;;;;5076045;28;20048;-68
2022/05/16 10:38:37;;;;;;;9.15;4.53;;;22.50;99.90;;;;;;5075257;28;20037;-70
2022/05/16 10:41:10;;;;;;;12.13;4.85;;;22.60;99.90;;;;;;5075590;28;20470;-70
2022/05/16 10:43:44;;;;;;;8.48;5.03;;;22.60;99.90;;;;;;5076093;28;20055;-69
2022/05/16 10:46:19;;;;;;;15.05;5.57;;;22.70;99.90;;;;;;5075846;28;20135;-69
2022/05/16 10:48:52;;;;;;;14.02;4.95;;;22.70;99.90;;;;;;5075999;28;20055;-69
2022/05/16 10:51:35;;;;;;;10.85;4.70;;;22.90;99.90;;;;;;5075813;28;20098;-71
2022/05/16 10:54:06;;;;;;;10.25;5.10;;;23.00;99.90;;;;;;5056952;28;20044;-68
2022/05/16 10:56:40;;;;;;;10.88;5.45;;;23.00;99.90;;;;;;5074323;28;20056;-65
2022/05/16 10:59:47;;;;;;;11.25;5.00;;;23.00;99.90;;;;;;5075506;28;20078;-66
2022/05/16 11:02:29;;;;;;;9.63;4.93;;;23.00;99.90;;;;;;4993837;28;20054;-66
2022/05/16 11:05:09;;;;;;;11.80;4.90;;;23.10;99.90;;;;;;5070157;28;20079;-66
2022/05/16 11:07:35;;;;;;;12.48;5.65;;;23.10;99.90;;;;;;5073267;28;20141;-66
2022/05/16 11:10:21;;;;;;;13.70;5.07;;;23.20;99.90;;;;;;5075097;28;20087;-66
2022/05/16 11:13:10;;;;;;;10.13;6.00;;;23.40;99.90;;;;;;5074369;28;20040;-66
2022/05/16 11:15:48;;;;;;;12.57;5.82;;;23.50;99.90;;;;;;5074992;28;20347;-66
2022/05/16 11:18:34;;;;;;;9.57;5.40;;;23.60;99.90;;;;;;5074921;28;20532;-66
2022/05/16 11:21:30;;;;;;;11.68;6.28;;;23.60;99.90;;;;;;5074213;28;20036;-66
2022/05/16 11:24:14;;;;;;;14.05;6.22;;;23.60;99.90;;;;;;5071437;28;20107;-66
2022/05/16 11:26:45;;;;;;;17.37;7.33;;;23.70;99.90;;;;;;5073892;28;20060;-66
2022/05/16 11:29:44;;;;;;;17.67;5.70;;;23.70;99.90;;;;;;5075112;28;20059;-66
2022/05/16 11:32:47;;;;;;;11.38;6.32;;;24.00;99.90;;;;;;5050605;28;20045;-66
2022/05/16 11:35:25;;;;;;;13.20;6.57;;;24.00;99.90;;;;;;5074555;28;20143;-66
2022/05/16 11:38:28;;;;;;;13.93;6.45;;;24.00;99.90;;;;;;5072101;28;20079;-66
2022/05/16 11:41:31;;;;;;;18.95;6.70;;;24.20;99.90;;;;;;5029880;28;20049;-66
2022/05/16 11:44:30;;;;;;;12.93;7.25;;;24.30;99.90;;;;;;5056781;28;20062;-68
2022/05/16 11:47:20;;;;;;;11.70;6.68;;;24.10;99.90;;;;;;5071230;28;20538;-67
2022/05/16 11:49:59;;;;;;;11.35;7.43;;;24.00;99.90;;;;;;5072301;28;20044;-67
2022/05/16 11:52:33;;;;;;;12.27;6.65;;;24.00;99.90;;;;;;5074671;28;20052;-68
2022/05/16 11:55:01;;;;;;;;;;;23.90;99.90;;;;;;5074317;28;20396;-68
2022/05/16 12:01:04;;;;;;;14.10;7.97;;;23.80;99.90;;;;;;5074708;28;20052;-68
2022/05/16 12:03:34;;;;;;;12.00;7.22;;;23.80;99.90;;;;;;5050354;28;20053;-68
2022/05/16 12:06:48;;;;;;;12.70;7.60;;;24.00;99.90;;;;;;5053222;28;20531;-68
2022/05/16 12:09:19;;;;;;;16.23;8.38;;;24.10;99.90;;;;;;5018733;28;20481;-67
2022/05/16 12:11:58;;;;;;;17.23;8.57;;;24.30;99.90;;;;;;5072769;28;20413;-67
2022/05/16 12:14:34;;;;;;;15.93;9.10;;;24.30;99.90;;;;;;5072678;28;20454;-66
2022/05/16 12:17:14;;;;;;;15.52;8.02;;;24.20;99.90;;;;;;5069283;28;20040;-67
2022/05/16 12:19:42;;;;;;;18.90;9.32;;;24.20;99.90;;;;;;5069235;28;20033;-67
2022/05/16 12:22:17;;;;;;;17.10;9.05;;;24.00;99.90;;;;;;5071171;28;20106;-67
2022/05/16 12:24:52;;;;;;;18.48;8.68;;;23.80;99.90;;;;;;5078598;28;20158;-69
2022/05/16 12:27:30;;;;;;;20.85;9.50;;;23.90;99.90;;;;;;5078355;28;20056;-69
2022/05/16 12:30:01;;;;;;;15.20;8.65;;;23.80;99.90;;;;;;5060456;28;20048;-69
2022/05/16 12:32:29;;;;;;;15.98;9.15;;;23.60;99.90;;;;;;5077069;28;20048;-67
2022/05/16 12:35:00;;;;;;;11.88;8.75;;;23.60;99.90;;;;;;5067692;28;20133;-67
2022/05/16 12:37:27;;;;;;;18.10;8.75;;;23.70;99.90;;;;;;5069048;28;20120;-71
2022/05/16 12:40:04;;;;;;;13.02;8.35;;;23.80;99.90;;;;;;5078370;28;20041;-70
2022/05/16 12:42:54;;;;;;;13.82;9.57;;;23.90;99.90;;;;;;5060617;28;20109;-68
2022/05/16 12:45:47;;;;;;;23.33;9.88;;;23.70;99.90;;;;;;5078233;28;20060;-67
2022/05/16 12:49:08;;;;;;;19.13;11.70;;;23.70;99.90;;;;;;5076945;28;20049;-68
2022/05/16 12:51:56;;;;;;;17.20;14.02;;;23.70;99.90;;;;;;4961354;28;20381;-67
2022/05/16 12:55:01;;;;;;;18.33;14.27;;;23.60;99.90;;;;;;4976958;28;20062;-68
2022/05/16 12:57:55;;;;;;;13.90;12.40;;;23.70;99.90;;;;;;5077557;28;20438;-68
2022/05/16 13:00:27;;;;;;;14.93;12.40;;;23.60;99.90;;;;;;5060043;28;20072;-67
2022/05/16 13:03:11;;;;;;;18.17;13.10;;;23.20;99.90;;;;;;5076890;28;20052;-67
2022/05/16 13:06:08;;;;;;;18.92;14.60;;;23.10;99.90;;;;;;5077783;28;20044;-68
2022/05/16 13:08:50;;;;;;;16.77;13.48;;;23.60;99.90;;;;;;5026969;28;20048;-67
2022/05/16 13:11:34;;;;;;;22.10;13.90;;;24.00;99.90;;;;;;5076923;28;20098;-67
2022/05/16 13:14:17;;;;;;;15.15;13.55;;;24.00;99.90;;;;;;5077391;28;20462;-67
2022/05/16 13:17:04;;;;;;;16.52;12.98;;;24.50;99.90;;;;;;5077568;28;20059;-67
2022/05/16 13:19:33;;;;;;;14.15;11.63;;;24.80;99.90;;;;;;5077613;28;20048;-68
2022/05/16 13:22:20;;;;;;;14.38;10.88;;;24.80;99.90;;;;;;5077479;28;20114;-68
2022/05/16 13:24:46;;;;;;;10.75;7.30;;;24.40;99.90;;;;;;5059260;28;20123;-67
2022/05/16 13:30:11;;;;;;;9.07;6.63;;;24.50;99.90;;;;;;5077360;28;20127;-68
2022/05/16 13:32:38;;;;;;;8.10;5.28;;;24.70;99.90;;;;;;5077392;28;20063;-68
2022/05/16 13:35:07;;;;;;;9.32;6.28;;;25.00;99.90;;;;;;5076532;28;20048;-68
2022/05/16 13:37:46;;;;;;;9.35;7.47;;;25.20;99.90;;;;;;5077581;28;20041;-67